createdAt,value
2023-02-02T00:01:52.219Z,6.39
2023-02-02T00:04:26.849Z,5.88
2023-02-02T00:06:57.182Z,6.37
2023-02-02T00:09:29.869Z,6.07
2023-02-02T00:12:01.045Z,6.18
2023-02-02T00:14:30.962Z,6.34
2023-02-02T00:17:01.540Z,5.99
2023-02-02T00:19:34.367Z,6.18
2023-02-02T00:22:04.293Z,6.93
2023-02-02T00:24:34.197Z,6.87
2023-02-02T00:27:04.098Z,6.33
2023-02-02T00:29:34.757Z,6.47
2023-02-02T00:32:04.567Z,5.85
2023-02-02T00:34:37.010Z,5.99
2023-02-02T00:37:08.504Z,6.14
2023-02-02T00:39:38.427Z,6.02
2023-02-02T00:42:08.453Z,6.00
2023-02-02T00:44:50.805Z,6.04
2023-02-02T00:47:20.684Z,6.06
2023-02-02T00:49:54.026Z,6.26
2023-02-02T00:52:23.889Z,6.25
2023-02-02T00:54:53.735Z,5.74
2023-02-02T00:57:23.673Z,5.60
2023-02-02T00:59:53.604Z,5.68
2023-02-02T01:02:23.521Z,5.73
2023-02-02T01:04:56.260Z,5.74
2023-02-02T01:07:26.213Z,5.19
2023-02-02T01:09:56.353Z,5.34
2023-02-02T01:12:26.318Z,5.21
2023-02-02T01:14:56.502Z,5.21
2023-02-02T01:17:26.533Z,5.36
2023-02-02T01:19:59.019Z,5.41
2023-02-02T01:22:29.640Z,5.46
2023-02-02T01:24:59.497Z,5.79
2023-02-02T01:27:29.839Z,5.24
2023-02-02T01:29:59.675Z,5.38
2023-02-02T01:32:29.609Z,5.93
2023-02-02T01:35:02.093Z,5.79
2023-02-02T01:37:32.350Z,5.54
2023-02-02T01:40:02.242Z,5.04
2023-02-02T01:42:32.852Z,5.22
2023-02-02T01:45:17.284Z,5.26
2023-02-02T01:47:53.331Z,5.79
2023-02-02T01:50:31.302Z,5.81
2023-02-02T01:53:04.921Z,5.33
2023-02-02T01:55:38.567Z,5.14
2023-02-02T01:58:14.696Z,5.26
2023-02-02T02:00:47.401Z,5.93
2023-02-02T02:03:23.583Z,5.62
2023-02-02T02:06:02.753Z,5.42
2023-02-02T02:08:37.770Z,5.31
2023-02-02T02:11:08.687Z,4.93
2023-02-02T02:13:54.281Z,5.49
2023-02-02T02:16:38.882Z,5.15
2023-02-02T02:20:01.995Z,5.18
2023-02-02T02:23:10.722Z,5.14
2023-02-02T02:26:15.933Z,5.02
2023-02-02T02:29:22.643Z,5.26
2023-02-02T02:32:28.368Z,5.10
2023-02-02T02:35:08.207Z,5.11
2023-02-02T02:37:47.164Z,5.16
2023-02-02T02:40:28.511Z,5.69
2023-02-02T02:43:02.970Z,5.81
2023-02-02T02:45:36.173Z,5.49
2023-02-02T02:48:11.077Z,5.77
2023-02-02T02:50:42.040Z,5.39
2023-02-02T02:53:18.829Z,5.42
2023-02-02T02:55:59.325Z,5.12
2023-02-02T02:58:43.952Z,5.34
2023-02-02T03:01:23.626Z,5.26
2023-02-02T03:04:11.361Z,5.64
2023-02-02T03:06:50.677Z,5.37
2023-02-02T03:09:26.076Z,5.58
2023-02-02T03:11:58.167Z,5.56
2023-02-02T03:14:28.365Z,5.51
2023-02-02T03:16:58.223Z,5.49
2023-02-02T03:19:30.758Z,5.82
2023-02-02T03:22:00.674Z,6.10
2023-02-02T03:24:30.476Z,5.69
2023-02-02T03:27:00.536Z,5.51
2023-02-02T03:29:31.799Z,5.86
2023-02-02T03:32:01.768Z,6.21
2023-02-02T03:34:34.175Z,5.77
2023-02-02T03:37:03.985Z,5.79
2023-02-02T03:39:33.852Z,6.25
2023-02-02T03:42:03.718Z,5.62
2023-02-02T03:44:33.593Z,5.90
2023-02-02T03:47:03.408Z,6.33
2023-02-02T03:49:35.887Z,6.20
2023-02-02T03:52:05.771Z,6.09
2023-02-02T03:54:35.675Z,6.17
2023-02-02T03:57:05.832Z,6.31
2023-02-02T03:59:35.676Z,5.75
2023-02-02T04:02:05.506Z,5.81
2023-02-02T04:04:38.138Z,6.26
2023-02-02T04:07:08.048Z,5.66
2023-02-02T04:09:37.903Z,5.91
2023-02-02T04:12:07.996Z,5.66
2023-02-02T04:14:37.788Z,5.92
2023-02-02T04:17:07.612Z,5.74
2023-02-02T04:19:40.029Z,5.75
2023-02-02T04:22:09.943Z,5.70
2023-02-02T04:24:39.750Z,5.86
2023-02-02T04:27:09.612Z,5.44
2023-02-02T04:29:39.453Z,5.61
2023-02-02T04:32:09.880Z,5.26
2023-02-02T04:34:42.371Z,5.60
2023-02-02T04:37:12.364Z,5.87
2023-02-02T04:39:42.639Z,5.80
2023-02-02T04:42:12.503Z,5.35
2023-02-02T04:44:44.079Z,5.29
2023-02-02T04:47:13.943Z,5.58
2023-02-02T04:49:46.411Z,5.34
2023-02-02T04:52:16.234Z,4.98
2023-02-02T04:54:46.066Z,5.09
2023-02-02T04:57:15.958Z,5.33
2023-02-02T04:59:45.971Z,5.28
2023-02-02T05:02:15.810Z,5.21
2023-02-02T05:04:49.460Z,5.33
2023-02-02T05:07:19.385Z,5.15
2023-02-02T05:09:49.356Z,4.71
2023-02-02T05:12:19.190Z,4.86
2023-02-02T05:14:49.037Z,5.04
2023-02-02T05:17:18.972Z,5.28
2023-02-02T05:19:51.427Z,5.44
2023-02-02T05:22:21.339Z,5.33
2023-02-02T05:24:51.247Z,5.62
2023-02-02T05:27:21.134Z,5.78
2023-02-02T05:29:51.093Z,5.73
2023-02-02T05:32:20.986Z,5.63
2023-02-02T05:34:53.561Z,5.46
2023-02-02T05:37:23.361Z,5.00
2023-02-02T05:39:53.782Z,5.19
2023-02-02T05:42:23.612Z,5.21
2023-02-02T05:44:53.455Z,5.01
2023-02-02T05:47:23.393Z,5.40
2023-02-02T05:49:56.842Z,5.62
2023-02-02T05:52:29.246Z,5.38
2023-02-02T05:54:59.041Z,5.32
2023-02-02T05:57:28.969Z,5.18
2023-02-02T05:59:58.857Z,5.55
2023-02-02T06:02:28.698Z,5.63
2023-02-02T06:05:01.218Z,5.59
2023-02-02T06:07:31.050Z,6.21
2023-02-02T06:10:00.907Z,5.42
2023-02-02T06:12:30.767Z,5.57
2023-02-02T06:15:00.630Z,5.20
2023-02-02T06:17:30.588Z,5.50
2023-02-02T06:20:03.041Z,5.28
2023-02-02T06:22:33.133Z,5.95
2023-02-02T06:25:05.572Z,5.84
2023-02-02T06:27:35.601Z,5.49
2023-02-02T06:30:05.566Z,6.13
2023-02-02T06:32:35.433Z,5.61
2023-02-02T06:35:09.033Z,5.96
2023-02-02T06:37:39.252Z,5.79
2023-02-02T06:40:11.698Z,6.05
2023-02-02T06:42:41.585Z,6.24
2023-02-02T06:45:13.031Z,6.00
2023-02-02T06:47:42.854Z,6.28
2023-02-02T06:50:15.919Z,6.00
2023-02-02T06:52:50.712Z,6.08
2023-02-02T06:55:21.518Z,6.01
2023-02-02T06:57:51.399Z,5.89
2023-02-02T07:00:22.202Z,6.13
2023-02-02T07:02:52.151Z,6.47
2023-02-02T07:05:25.147Z,6.22
2023-02-02T07:07:55.269Z,6.26
2023-02-02T07:11:12.800Z,6.66
2023-02-02T07:13:15.011Z,6.76
2023-02-02T07:15:45.026Z,7.19
2023-02-02T07:18:14.855Z,6.96
2023-02-02T07:20:47.295Z,6.34
2023-02-02T07:23:17.147Z,6.36
2023-02-02T07:25:46.992Z,6.13
2023-02-02T07:28:16.810Z,5.97
2023-02-02T07:30:46.689Z,6.91
2023-02-02T07:33:16.564Z,5.38
2023-02-02T07:35:49.133Z,6.15
2023-02-02T07:38:18.934Z,6.66
2023-02-02T07:40:49.693Z,5.93
2023-02-02T07:43:20.626Z,5.91
2023-02-02T07:45:50.484Z,5.93
2023-02-02T07:48:20.457Z,5.93
2023-02-02T07:50:52.973Z,6.21
2023-02-02T07:55:53.415Z,6.08
2023-02-02T07:58:23.292Z,6.45
2023-02-02T08:00:53.282Z,6.70
2023-02-02T08:03:23.313Z,7.11
2023-02-02T08:05:55.920Z,7.76
2023-02-02T08:08:25.911Z,7.27
2023-02-02T08:10:57.504Z,9.39
2023-02-02T08:13:27.509Z,8.20
2023-02-02T08:16:00.377Z,8.47
2023-02-02T08:18:30.320Z,9.27
2023-02-02T08:21:05.892Z,7.52
2023-02-02T08:23:36.647Z,7.44
2023-02-02T08:26:11.936Z,7.60
2023-02-02T08:28:42.476Z,7.76
2023-02-02T08:31:16.286Z,8.13
2023-02-02T08:33:47.233Z,7.99
2023-02-02T08:36:22.196Z,9.19
2023-02-02T08:38:53.313Z,7.55
2023-02-02T08:41:25.956Z,7.90
2023-02-02T08:43:55.810Z,8.02
2023-02-02T08:46:25.963Z,7.90
2023-02-02T08:48:55.887Z,9.08
2023-02-02T08:51:28.392Z,8.53
2023-02-02T08:53:58.264Z,7.65
2023-02-02T08:56:28.141Z,8.32
2023-02-02T08:59:00.545Z,8.11
2023-02-02T09:01:32.359Z,8.60
2023-02-02T09:04:04.545Z,8.41
2023-02-02T09:06:39.331Z,8.54
2023-02-02T09:09:11.996Z,8.39
2023-02-02T09:11:42.914Z,8.95
2023-02-02T09:14:14.676Z,9.38
2023-02-02T09:16:44.768Z,9.91
2023-02-02T09:19:14.975Z,11.82
2023-02-02T09:21:47.481Z,12.81
2023-02-02T09:24:17.351Z,9.97
2023-02-02T09:26:48.355Z,9.57
2023-02-02T09:29:20.497Z,9.04
2023-02-02T09:31:50.469Z,9.18
2023-02-02T09:34:20.390Z,9.49
2023-02-02T09:36:54.342Z,8.88
2023-02-02T09:39:24.249Z,9.17
2023-02-02T09:42:21.492Z,9.80
2023-02-02T09:45:09.825Z,8.10
2023-02-02T09:47:56.229Z,7.89
2023-02-02T09:50:40.864Z,8.51
2023-02-02T09:53:23.733Z,8.06
2023-02-02T09:55:55.752Z,7.89
2023-02-02T09:58:31.235Z,8.25
2023-02-02T10:01:07.491Z,7.99
2023-02-02T10:03:45.095Z,7.30
2023-02-02T10:06:29.457Z,7.04
2023-02-02T10:09:23.523Z,7.06
2023-02-02T10:12:00.848Z,7.04
2023-02-02T10:14:36.542Z,7.36
2023-02-02T10:17:38.526Z,7.75
2023-02-02T10:20:23.128Z,7.28
2023-02-02T10:22:54.018Z,7.61
2023-02-02T10:25:31.924Z,7.44
2023-02-02T10:28:09.937Z,6.95
2023-02-02T10:30:48.437Z,7.48
2023-02-02T10:33:27.779Z,7.39
2023-02-02T10:36:09.795Z,6.79
2023-02-02T10:38:50.210Z,7.27
2023-02-02T10:41:36.082Z,7.17
2023-02-02T10:44:23.322Z,6.65
2023-02-02T10:46:58.831Z,8.01
2023-02-02T10:49:33.924Z,6.82
2023-02-02T10:52:20.354Z,6.75
2023-02-02T10:55:00.019Z,6.71
2023-02-02T10:57:51.233Z,6.82
2023-02-02T11:00:28.335Z,7.51
2023-02-02T11:02:59.158Z,7.14
2023-02-02T11:05:45.861Z,6.50
2023-02-02T11:08:18.107Z,6.29
2023-02-02T11:10:50.449Z,6.02
2023-02-02T11:13:31.458Z,6.31
2023-02-02T11:16:38.798Z,5.97
2023-02-02T11:19:26.777Z,6.71
2023-02-02T11:21:59.710Z,6.07
2023-02-02T11:24:36.552Z,5.83
2023-02-02T11:27:15.466Z,5.80
2023-02-02T11:29:51.763Z,5.92
2023-02-02T11:32:31.162Z,5.49
2023-02-02T11:35:23.902Z,5.71
2023-02-02T11:38:02.547Z,5.73
2023-02-02T11:40:36.710Z,6.19
2023-02-02T11:43:09.979Z,5.74
2023-02-02T11:45:45.819Z,6.11
2023-02-02T11:48:20.594Z,5.97
2023-02-02T11:50:53.737Z,5.43
2023-02-02T11:53:27.668Z,6.25
2023-02-02T11:56:03.250Z,6.19
2023-02-02T11:58:46.455Z,6.43
2023-02-02T12:01:32.053Z,6.13
2023-02-02T12:04:04.610Z,5.68
2023-02-02T12:06:38.786Z,5.88
2023-02-02T12:09:16.216Z,6.04
2023-02-02T12:12:00.400Z,6.41
2023-02-02T12:14:42.544Z,6.42
2023-02-02T12:17:33.236Z,6.75
2023-02-02T12:20:24.940Z,6.26
2023-02-02T12:23:21.326Z,6.19
2023-02-02T12:26:08.593Z,5.55
2023-02-02T12:29:14.735Z,6.08
2023-02-02T12:31:59.665Z,5.53
2023-02-02T12:34:44.304Z,6.29
2023-02-02T12:37:26.769Z,6.51
2023-02-02T12:40:14.804Z,6.42
2023-02-02T12:43:05.851Z,5.84
2023-02-02T12:46:02.174Z,5.79
2023-02-02T12:48:53.243Z,5.56
2023-02-02T12:51:43.298Z,5.80
2023-02-02T12:54:46.171Z,5.64
2023-02-02T12:57:28.396Z,5.57
2023-02-02T13:00:15.575Z,5.97
2023-02-02T13:03:04.693Z,6.06
2023-02-02T13:05:53.488Z,6.05
2023-02-02T13:08:33.175Z,5.31
2023-02-02T13:11:29.869Z,5.10
2023-02-02T13:14:08.532Z,5.49
2023-02-02T13:16:41.242Z,5.97
2023-02-02T13:19:20.601Z,7.54
2023-02-02T13:21:54.450Z,5.15
2023-02-02T13:24:33.418Z,5.33
2023-02-02T13:27:08.949Z,5.68
2023-02-02T13:29:48.417Z,6.02
2023-02-02T13:32:27.704Z,5.42
2023-02-02T13:35:03.552Z,5.47
2023-02-02T13:37:42.541Z,5.10
2023-02-02T13:40:28.206Z,5.27
2023-02-02T13:43:11.493Z,5.32
2023-02-02T13:46:00.380Z,5.22
2023-02-02T13:48:42.142Z,5.29
2023-02-02T13:51:38.658Z,5.00
2023-02-02T13:54:42.190Z,5.31
2023-02-02T13:57:31.865Z,4.95
2023-02-02T14:00:15.477Z,4.90
2023-02-02T14:02:49.813Z,5.76
2023-02-02T14:05:31.640Z,6.54
2023-02-02T14:08:07.394Z,4.88
2023-02-02T14:10:40.827Z,4.92
2023-02-02T14:13:37.764Z,5.11
2023-02-02T14:16:10.739Z,5.29
2023-02-02T14:18:59.520Z,5.16
2023-02-02T14:21:59.529Z,5.08
2023-02-02T14:24:48.734Z,4.47
2023-02-02T14:27:58.516Z,4.45
2023-02-02T14:30:39.911Z,4.47
2023-02-02T14:33:47.623Z,4.68
2023-02-02T14:36:20.674Z,4.60
2023-02-02T14:39:05.443Z,4.83
2023-02-02T14:42:10.542Z,5.17
2023-02-02T14:45:00.483Z,4.69
2023-02-02T14:47:49.736Z,4.87
2023-02-02T14:50:28.043Z,4.73
2023-02-02T14:53:08.459Z,4.93
2023-02-02T14:55:54.031Z,4.41
2023-02-02T14:58:28.999Z,4.62
2023-02-02T15:01:06.865Z,4.81
2023-02-02T15:03:50.530Z,4.75
2023-02-02T15:06:34.534Z,4.23
2023-02-02T15:09:31.299Z,5.06
2023-02-02T15:12:20.077Z,4.60
2023-02-02T15:14:58.218Z,4.47
2023-02-02T15:17:44.613Z,4.66
2023-02-02T15:20:25.471Z,4.24
2023-02-02T15:23:01.113Z,4.13
2023-02-02T15:25:37.234Z,4.33
2023-02-02T15:28:16.768Z,4.78
2023-02-02T15:30:51.221Z,4.45
2023-02-02T15:33:30.839Z,4.19
2023-02-02T15:36:09.069Z,4.77
2023-02-02T15:38:42.672Z,5.55
2023-02-02T15:41:23.207Z,4.32
2023-02-02T15:43:54.301Z,7.32
2023-02-02T15:46:28.631Z,8.58
2023-02-02T15:49:34.755Z,7.03
2023-02-02T15:52:16.364Z,4.78
2023-02-02T15:54:55.647Z,4.76
2023-02-02T15:57:34.197Z,4.54
2023-02-02T16:00:28.718Z,4.86
2023-02-02T16:03:06.507Z,7.33
2023-02-02T16:05:50.237Z,6.18
2023-02-02T16:08:29.619Z,5.06
2023-02-02T16:11:11.156Z,3.58
2023-02-02T16:13:43.100Z,3.81
2023-02-02T16:16:30.840Z,3.66
2023-02-02T16:19:14.858Z,3.81
2023-02-02T16:21:50.791Z,3.25
2023-02-02T16:24:28.717Z,3.22
2023-02-02T16:27:02.941Z,3.57
2023-02-02T16:29:33.206Z,4.00
2023-02-02T16:32:03.314Z,3.77
2023-02-02T16:34:50.031Z,3.63
2023-02-02T16:37:27.326Z,3.19
2023-02-02T16:40:22.529Z,3.53
2023-02-02T16:43:07.510Z,3.67
2023-02-02T16:45:51.926Z,4.95
2023-02-02T16:48:32.610Z,3.57
2023-02-02T16:51:09.738Z,3.77
2023-02-02T16:53:40.817Z,3.79
2023-02-02T16:56:26.855Z,4.01
2023-02-02T16:58:58.254Z,5.16
2023-02-02T17:01:39.495Z,6.54
2023-02-02T17:04:21.158Z,5.24
2023-02-02T17:06:53.488Z,6.54
2023-02-02T17:09:35.825Z,4.13
2023-02-02T17:12:35.236Z,4.44
2023-02-02T17:15:34.136Z,3.85
2023-02-02T17:18:05.216Z,3.47
2023-02-02T17:20:36.284Z,4.16
2023-02-02T17:23:10.536Z,3.79
2023-02-02T17:25:45.220Z,3.44
2023-02-02T17:28:21.777Z,3.45
2023-02-02T17:30:58.589Z,3.56
2023-02-02T17:33:29.728Z,3.88
2023-02-02T17:35:59.640Z,4.04
2023-02-02T17:38:30.378Z,4.29
2023-02-02T17:41:03.552Z,3.87
2023-02-02T17:43:36.913Z,3.99
2023-02-02T17:46:06.944Z,3.81
2023-02-02T17:48:37.260Z,3.92
2023-02-02T17:51:07.548Z,3.60
2023-02-02T17:53:38.763Z,3.57
2023-02-02T17:56:09.171Z,3.74
2023-02-02T17:58:41.781Z,3.73
2023-02-02T18:01:14.526Z,3.55
2023-02-02T18:03:48.733Z,3.62
2023-02-02T18:06:18.705Z,3.59
2023-02-02T18:08:48.634Z,4.09
2023-02-02T18:11:19.158Z,3.73
2023-02-02T18:13:51.726Z,3.44
2023-02-02T18:16:22.615Z,3.40
2023-02-02T18:18:53.714Z,3.49
2023-02-02T18:21:25.484Z,3.48
2023-02-02T18:23:55.725Z,3.96
2023-02-02T18:26:27.101Z,3.45
2023-02-02T18:28:59.583Z,3.26
2023-02-02T18:31:29.775Z,3.84
2023-02-02T18:33:59.740Z,4.13
2023-02-02T18:36:29.778Z,3.68
2023-02-02T18:39:00.291Z,3.19
2023-02-02T18:41:31.282Z,3.60
2023-02-02T18:44:03.857Z,4.12
2023-02-02T18:46:34.246Z,4.88
2023-02-02T18:49:04.185Z,3.99
2023-02-02T18:51:34.267Z,5.70
2023-02-02T18:54:04.157Z,4.67
2023-02-02T18:56:34.055Z,3.97
2023-02-02T18:59:06.899Z,3.66
2023-02-02T19:01:37.434Z,3.52
2023-02-02T19:04:07.743Z,3.51
2023-02-02T19:06:50.239Z,3.52
2023-02-02T19:09:22.077Z,3.45
2023-02-02T19:11:55.013Z,3.39
2023-02-02T19:14:34.343Z,3.33
2023-02-02T19:17:19.742Z,3.62
2023-02-02T19:19:50.746Z,3.48
2023-02-02T19:22:23.355Z,3.59
2023-02-02T19:24:53.931Z,3.28
2023-02-02T19:27:26.668Z,3.58
2023-02-02T19:30:03.933Z,3.79
2023-02-02T19:32:37.825Z,3.67
2023-02-02T19:35:18.208Z,3.47
2023-02-02T19:37:49.351Z,3.58
2023-02-02T19:40:24.783Z,3.52
2023-02-02T19:43:00.259Z,3.16
2023-02-02T19:45:35.492Z,3.38
2023-02-02T19:48:17.574Z,3.79
2023-02-02T19:50:48.285Z,3.75
2023-02-02T19:53:24.128Z,3.57
2023-02-02T19:55:55.681Z,3.49
2023-02-02T19:58:28.360Z,3.69
2023-02-02T20:01:04.669Z,3.76
2023-02-02T20:03:46.594Z,3.75
2023-02-02T20:06:32.189Z,3.60
2023-02-02T20:09:11.124Z,3.66
2023-02-02T20:11:44.080Z,3.96
2023-02-02T20:14:30.352Z,4.06
2023-02-02T20:17:08.737Z,4.03
2023-02-02T20:19:44.163Z,3.79
2023-02-02T20:22:26.863Z,3.30
2023-02-02T20:31:26.233Z,3.72
2023-02-02T20:34:00.170Z,3.97
2023-02-02T20:36:46.467Z,3.60
2023-02-02T20:39:39.880Z,3.65
2023-02-02T20:42:29.882Z,3.38
2023-02-02T20:45:01.296Z,3.47
2023-02-02T20:47:33.859Z,3.72
2023-02-02T20:50:09.994Z,3.51
2023-02-02T20:52:41.711Z,4.56
2023-02-02T20:55:12.920Z,4.12
2023-02-02T20:57:43.026Z,3.35
2023-02-02T21:00:17.758Z,3.25
2023-02-02T21:02:48.775Z,3.21
2023-02-02T21:05:28.975Z,3.54
2023-02-02T21:08:05.105Z,3.24
2023-02-02T21:10:36.859Z,3.77
2023-02-02T21:13:06.765Z,3.53
2023-02-02T21:15:41.357Z,3.56
2023-02-02T21:18:14.419Z,3.58
2023-02-02T21:20:47.077Z,3.36
2023-02-02T21:23:21.735Z,3.58
2023-02-02T21:25:51.617Z,3.50
2023-02-02T21:28:21.561Z,3.59
2023-02-02T21:30:51.901Z,3.56
2023-02-02T21:33:22.427Z,3.71
2023-02-02T21:35:55.409Z,3.77
2023-02-02T21:38:27.815Z,3.74
2023-02-02T21:41:00.604Z,3.83
2023-02-02T21:43:30.749Z,3.80
2023-02-02T21:46:03.183Z,4.45
2023-02-02T21:48:40.897Z,3.85
2023-02-02T21:51:24.449Z,3.79
2023-02-02T21:53:54.906Z,3.37
2023-02-02T21:56:30.207Z,3.55
2023-02-02T21:59:02.609Z,3.49
2023-02-02T22:01:39.636Z,3.58
2023-02-02T22:04:18.956Z,3.67
2023-02-02T22:06:53.319Z,3.55
2023-02-02T22:09:26.301Z,3.73
2023-02-02T22:12:10.696Z,4.26
2023-02-02T22:14:42.881Z,3.87
2023-02-02T22:17:25.940Z,3.66
2023-02-02T22:20:01.918Z,4.09
2023-02-02T22:22:46.979Z,3.88
2023-02-02T22:25:36.187Z,4.01
2023-02-02T22:28:19.833Z,3.71
2023-02-02T22:30:50.836Z,4.02
2023-02-02T22:33:23.788Z,3.88
2023-02-02T22:35:53.701Z,3.95
2023-02-02T22:38:28.943Z,4.01
2023-02-02T22:40:59.669Z,3.92
2023-02-02T22:43:29.743Z,3.78
2023-02-02T22:46:03.083Z,3.65
2023-02-02T22:48:36.683Z,3.78
2023-02-02T22:51:17.995Z,3.45
2023-02-02T22:54:52.415Z,3.49
2023-02-02T22:58:09.531Z,3.71
2023-02-02T23:00:57.443Z,3.35
2023-02-02T23:03:48.724Z,3.38
2023-02-02T23:06:19.650Z,3.12
2023-02-02T23:08:49.615Z,2.95
2023-02-02T23:11:19.932Z,3.56
2023-02-02T23:13:53.192Z,3.34
2023-02-02T23:16:23.299Z,3.04
2023-02-02T23:18:56.078Z,2.94
2023-02-02T23:21:30.530Z,3.05
2023-02-02T23:24:00.548Z,2.94
2023-02-02T23:26:30.399Z,3.11
2023-02-02T23:29:02.893Z,3.20
2023-02-02T23:31:33.136Z,3.85
2023-02-02T23:34:03.032Z,3.50
2023-02-02T23:36:33.165Z,3.28
2023-02-02T23:39:03.009Z,3.34
2023-02-02T23:41:33.016Z,3.70
2023-02-02T23:44:05.887Z,3.75
2023-02-02T23:46:35.908Z,3.88
2023-02-02T23:49:06.145Z,4.47
2023-02-02T23:51:36.824Z,4.31
2023-02-02T23:54:07.274Z,4.33
2023-02-02T23:56:37.168Z,4.04
2023-02-02T23:59:09.716Z,4.04
